Time;durP1;ratioP1;P1;durP2;ratioP2;P2;SDS_P1;SDS_P2;PMS_P1;PMS_P2;Temp;Humidity;BMP_temperature;BMP_pressure;BME280_temperature;BME280_humidity;BME280_pressure;Samples;Min_cycle;Max_cycle;Signal;HPM_P1;HPM_P2
2022/06/20 00:00:23;;;;;;;5.72;0.95;;;11.90;99.90;;;;;;5030397;28;20052;-37
2022/06/20 00:02:52;;;;;;;5.18;0.50;;;11.10;99.90;;;;;;5030280;28;20408;-37
2022/06/20 00:05:21;;;;;;;5.57;0.73;;;11.20;99.90;;;;;;5030419;28;20053;-37
2022/06/20 00:07:48;;;;;;;5.93;0.65;;;11.20;99.90;;;;;;5030336;28;20045;-37
2022/06/20 00:10:16;;;;;;;4.97;0.50;;;11.90;99.90;;;;;;5029615;28;20417;-37
2022/06/20 00:12:43;;;;;;;5.05;0.60;;;11.30;99.90;;;;;;5028462;28;20163;-37
2022/06/20 00:15:25;;;;;;;5.47;0.50;;;11.30;99.90;;;;;;5030312;28;20037;-37
2022/06/20 00:17:52;;;;;;;3.40;0.50;;;11.20;99.90;;;;;;5030222;28;20091;-38
2022/06/20 00:20:18;;;;;;;4.07;0.55;;;11.90;99.90;;;;;;5030116;28;20041;-37
2022/06/20 00:22:43;;;;;;;7.07;0.60;;;11.00;99.90;;;;;;5028238;28;20068;-37
2022/06/20 00:25:10;;;;;;;6.07;0.60;;;10.90;99.90;;;;;;5030149;28;20041;-37
2022/06/20 00:27:35;;;;;;;5.32;0.65;;;10.80;99.90;;;;;;5030091;28;20049;-37
2022/06/20 00:30:02;;;;;;;4.78;0.60;;;10.80;99.90;;;;;;5029351;28;20053;-37
2022/06/20 00:32:28;;;;;;;4.00;0.50;;;10.80;99.90;;;;;;5030168;28;20041;-37
2022/06/20 00:34:53;;;;;;;6.00;1.02;;;10.70;99.90;;;;;;5029703;28;20420;-37
2022/06/20 00:37:20;;;;;;;3.17;0.68;;;10.60;99.90;;;;;;5029656;28;20061;-37
2022/06/20 00:39:48;;;;;;;4.90;0.70;;;11.00;99.90;;;;;;5029440;28;20056;-37
2022/06/20 00:42:14;;;;;;;6.78;0.73;;;10.70;99.90;;;;;;5029549;28;20056;-37
2022/06/20 00:44:45;;;;;;;5.32;0.73;;;10.70;99.90;;;;;;5028029;28;20037;-37
2022/06/20 00:47:20;;;;;;;5.68;0.82;;;11.90;99.90;;;;;;5029787;28;20378;-37
2022/06/20 00:50:10;;;;;;;3.85;0.60;;;11.00;99.90;;;;;;5028676;28;20447;-37
2022/06/20 00:52:35;;;;;;;7.72;0.85;;;11.00;99.90;;;;;;5029532;28;20540;-37
2022/06/20 00:55:13;;;;;;;6.70;1.00;;;11.00;99.90;;;;;;5029358;28;20076;-37
2022/06/20 00:57:45;;;;;;;4.90;1.17;;;11.10;99.90;;;;;;5029372;28;20049;-37
2022/06/20 01:00:13;;;;;;;6.88;0.75;;;11.10;99.90;;;;;;5027738;28;20045;-37
2022/06/20 01:02:43;;;;;;;6.70;0.88;;;11.20;99.90;;;;;;5029236;28;20041;-37
2022/06/20 01:05:24;;;;;;;5.80;0.50;;;11.80;99.90;;;;;;5029259;28;20112;-37
2022/06/20 01:08:18;;;;;;;3.92;0.80;;;11.30;99.90;;;;;;5029094;28;20053;-37
2022/06/20 01:11:04;;;;;;;9.77;1.13;;;11.30;99.90;;;;;;5028683;28;20439;-37
2022/06/20 01:13:30;;;;;;;6.57;0.80;;;11.40;99.90;;;;;;5029638;28;20045;-37
2022/06/20 01:16:04;;;;;;;4.05;0.90;;;11.40;99.90;;;;;;5028934;28;20052;-37
2022/06/20 01:18:33;;;;;;;10.30;1.27;;;11.20;99.90;;;;;;5029133;28;20566;-37
2022/06/20 01:21:01;;;;;;;5.53;0.73;;;11.40;99.90;;;;;;5028341;28;20155;-37
2022/06/20 01:23:59;;;;;;;4.88;0.80;;;11.30;99.90;;;;;;5029173;28;20060;-37
2022/06/20 01:26:39;;;;;;;4.85;0.88;;;11.50;99.90;;;;;;5028675;28;20048;-37
2022/06/20 01:29:09;;;;;;;5.07;1.02;;;11.40;99.90;;;;;;5028883;28;20436;-37
2022/06/20 01:31:39;;;;;;;5.32;1.17;;;11.40;99.90;;;;;;5029078;28;20038;-37
2022/06/20 01:34:06;;;;;;;5.28;1.25;;;11.40;99.90;;;;;;5028371;28;20833;-37
2022/06/20 01:39:22;;;;;;;6.65;1.10;;;11.40;99.90;;;;;;5029039;28;20401;-37
2022/06/20 01:44:43;;;;;;;4.85;1.00;;;11.30;99.90;;;;;;5027304;28;20072;-37
2022/06/20 01:47:10;;;;;;;4.07;1.00;;;11.30;99.90;;;;;;5028112;28;20464;-37
2022/06/20 01:49:37;;;;;;;6.30;1.40;;;11.10;99.90;;;;;;5028436;28;20045;-37
2022/06/20 01:52:13;;;;;;;8.02;1.20;;;11.10;99.90;;;;;;5028506;28;20049;-37
2022/06/20 01:54:45;;;;;;;5.25;1.02;;;11.10;99.90;;;;;;5027671;28;20049;-37
2022/06/20 01:57:12;;;;;;;7.30;1.17;;;11.00;99.90;;;;;;5028353;28;20392;-37
2022/06/20 01:59:45;;;;;;;7.05;1.40;;;11.20;99.90;;;;;;5027834;28;20057;-37
2022/06/20 02:02:11;;;;;;;6.50;1.10;;;10.80;99.90;;;;;;5027413;28;20049;-37
2022/06/20 02:04:39;;;;;;;7.13;1.20;;;10.80;99.90;;;;;;5028152;28;20049;-37
2022/06/20 02:07:08;;;;;;;7.60;1.35;;;11.20;99.90;;;;;;5027899;28;20053;-37
2022/06/20 02:09:34;;;;;;;7.40;1.35;;;10.70;99.90;;;;;;5027450;28;20077;-37
2022/06/20 02:12:03;;;;;;;3.55;1.50;;;10.60;99.90;;;;;;5027626;28;20049;-37
2022/06/20 02:14:37;;;;;;;9.15;1.75;;;10.60;99.90;;;;;;5028132;28;20048;-37
2022/06/20 02:17:08;;;;;;;7.95;1.73;;;10.50;99.90;;;;;;5027902;28;20053;-37
2022/06/20 02:19:40;;;;;;;7.95;1.50;;;10.50;99.90;;;;;;5027898;28;20049;-37
2022/06/20 02:22:08;;;;;;;6.68;1.33;;;10.40;99.90;;;;;;5027290;28;20046;-37
2022/06/20 02:24:39;;;;;;;6.75;2.35;;;10.30;99.90;;;;;;5027731;28;20072;-37
2022/06/20 02:27:13;;;;;;;9.35;1.38;;;10.30;99.90;;;;;;5027714;28;20112;-37
2022/06/20 02:29:38;;;;;;;5.82;1.30;;;10.20;99.90;;;;;;5028174;28;20049;-37
2022/06/20 02:32:11;;;;;;;9.48;1.80;;;9.90;99.90;;;;;;5027427;28;20052;-37
2022/06/20 02:34:37;;;;;;;10.40;2.33;;;9.80;99.90;;;;;;5027527;28;20393;-37
2022/06/20 02:37:09;;;;;;;7.85;1.40;;;9.80;99.90;;;;;;5027094;28;20045;-37
2022/06/20 02:39:38;;;;;;;8.32;1.90;;;10.00;99.90;;;;;;5027464;28;20558;-37
2022/06/20 02:42:08;;;;;;;5.60;1.30;;;9.70;99.90;;;;;;5027051;28;20500;-37
2022/06/20 02:44:35;;;;;;;6.35;2.33;;;9.60;99.90;;;;;;5026477;28;20049;-37
2022/06/20 02:47:05;;;;;;;6.68;1.90;;;9.40;99.90;;;;;;5027374;28;20511;-37
2022/06/20 02:49:33;;;;;;;4.80;1.55;;;9.50;99.90;;;;;;5028103;28;20420;-37
2022/06/20 02:52:01;;;;;;;11.68;1.70;;;9.60;99.90;;;;;;5027533;28;20451;-37
2022/06/20 02:54:32;;;;;;;9.95;2.17;;;9.10;99.90;;;;;;5027573;28;20041;-37
2022/06/20 02:57:10;;;;;;;5.45;1.55;;;9.20;99.90;;;;;;5027105;28;20056;-37
2022/06/20 02:59:49;;;;;;;6.00;2.22;;;9.20;99.90;;;;;;5027617;28;20044;-37
2022/06/20 03:02:19;;;;;;;7.53;1.63;;;9.10;99.90;;;;;;5027623;28;20045;-37
2022/06/20 03:04:46;;;;;;;8.15;1.92;;;9.70;99.90;;;;;;5027740;28;20038;-37
2022/06/20 03:07:23;;;;;;;6.95;1.55;;;8.80;99.90;;;;;;5027254;28;20553;-37
2022/06/20 03:09:57;;;;;;;5.22;1.67;;;8.90;99.90;;;;;;5025396;28;20049;-37
2022/06/20 03:12:23;;;;;;;4.15;1.67;;;8.90;99.90;;;;;;5029588;28;20258;-37
2022/06/20 03:14:58;;;;;;;9.60;1.60;;;8.80;99.90;;;;;;5031444;28;20057;-37
2022/06/20 03:17:24;;;;;;;5.03;1.70;;;8.70;99.90;;;;;;5031118;28;20184;-37
2022/06/20 03:20:04;;;;;;;6.00;2.05;;;9.00;99.90;;;;;;5031356;28;20140;-37
2022/06/20 03:22:37;;;;;;;12.63;2.70;;;8.70;99.90;;;;;;5030767;28;20108;-37
2022/06/20 03:25:04;;;;;;;8.95;1.75;;;8.60;99.90;;;;;;5031112;28;20046;-37
2022/06/20 03:27:33;;;;;;;5.53;2.00;;;8.60;99.90;;;;;;5031576;28;20041;-37
2022/06/20 03:30:22;;;;;;;11.10;2.08;;;9.10;99.90;;;;;;5031312;28;20386;-37
2022/06/20 03:32:47;;;;;;;6.30;1.95;;;8.60;99.90;;;;;;5030975;28;20516;-37
2022/06/20 03:35:13;;;;;;;8.00;1.73;;;8.60;99.90;;;;;;5030688;28;20041;-37
2022/06/20 03:37:39;;;;;;;8.50;1.77;;;8.60;99.90;;;;;;5030582;28;20076;-37
2022/06/20 03:40:06;;;;;;;7.22;1.90;;;8.50;99.90;;;;;;5030336;28;20082;-37
2022/06/20 03:42:31;;;;;;;10.38;2.13;;;8.60;99.90;;;;;;5030397;28;20041;-37
2022/06/20 03:45:00;;;;;;;9.45;2.67;;;8.40;99.90;;;;;;5030432;28;20040;-37
2022/06/20 03:47:41;;;;;;;6.60;1.98;;;8.60;99.90;;;;;;5030735;28;20165;-37
2022/06/20 03:50:37;;;;;;;8.02;1.92;;;8.60;99.90;;;;;;5030625;28;20052;-37
2022/06/20 03:53:16;;;;;;;7.88;2.38;;;8.70;99.90;;;;;;5031016;28;20045;-37
2022/06/20 03:56:11;;;;;;;6.55;1.98;;;8.80;99.90;;;;;;5030802;28;20072;-37
2022/06/20 03:58:47;;;;;;;8.50;2.45;;;8.70;99.90;;;;;;5030639;28;20049;-37
2022/06/20 04:01:18;;;;;;;4.78;2.40;;;8.80;99.90;;;;;;5030570;28;20037;-37
2022/06/20 04:03:58;;;;;;;8.55;2.33;;;8.80;99.90;;;;;;5030892;28;20442;-37
2022/06/20 04:06:40;;;;;;;12.18;2.13;;;8.90;99.90;;;;;;5030428;28;20063;-37
2022/06/20 04:12:04;;;;;;;6.50;1.70;;;8.50;99.90;;;;;;5030053;28;20410;-37
2022/06/20 04:14:39;;;;;;;4.88;2.22;;;9.80;99.90;;;;;;5030259;28;20368;-37
2022/06/20 04:20:00;;;;;;;8.93;2.42;;;9.90;99.90;;;;;;5030491;28;20072;-37
2022/06/20 04:22:31;;;;;;;5.93;2.03;;;10.10;99.90;;;;;;5029533;28;20417;-37
2022/06/20 04:25:19;;;;;;;5.00;1.23;;;10.20;99.90;;;;;;5028767;28;20481;-37
2022/06/20 04:28:09;;;;;;;6.55;1.30;;;10.40;99.90;;;;;;5030172;28;20049;-37
2022/06/20 04:30:52;;;;;;;4.68;1.10;;;10.50;99.90;;;;;;5030360;28;20116;-37
2022/06/20 04:33:30;;;;;;;5.93;1.17;;;10.60;99.90;;;;;;5029782;28;20049;-37
2022/06/20 04:35:55;;;;;;;7.53;2.22;;;10.60;99.90;;;;;;5030256;28;20045;-37
2022/06/20 04:38:30;;;;;;;3.67;0.75;;;10.70;99.90;;;;;;5029901;28;20037;-37
2022/06/20 04:41:05;;;;;;;6.30;1.20;;;10.90;99.90;;;;;;5030340;28;20344;-37
2022/06/20 04:43:42;;;;;;;5.03;1.08;;;11.50;99.90;;;;;;5029245;28;20041;-38
2022/06/20 04:46:31;;;;;;;4.28;1.10;;;11.10;99.90;;;;;;5029240;28;20041;-37
2022/06/20 04:48:57;;;;;;;6.00;1.35;;;11.20;99.90;;;;;;5029719;28;20041;-38
2022/06/20 04:51:33;;;;;;;6.15;1.33;;;11.40;99.90;;;;;;5029386;28;20057;-37
2022/06/20 04:53:59;;;;;;;3.85;1.10;;;11.60;99.90;;;;;;5028038;28;20556;-37
2022/06/20 04:56:28;;;;;;;6.97;1.45;;;11.80;99.90;;;;;;5028759;28;20049;-37
2022/06/20 04:59:00;;;;;;;3.70;1.17;;;12.80;99.90;;;;;;5029217;28;20048;-37
2022/06/20 05:01:28;;;;;;;5.60;1.30;;;12.70;99.90;;;;;;5028842;28;20052;-37
2022/06/20 05:04:06;;;;;;;8.20;1.60;;;12.40;99.90;;;;;;5029146;28;20063;-37
2022/06/20 05:06:35;;;;;;;8.10;2.80;;;13.40;99.90;;;;;;5029052;28;20053;-37
2022/06/20 05:09:25;;;;;;;5.68;1.67;;;12.90;99.90;;;;;;5029179;28;20041;-37
2022/06/20 05:12:16;;;;;;;6.40;1.70;;;12.50;99.90;;;;;;5027763;28;20053;-37
2022/06/20 05:14:58;;;;;;;10.90;2.95;;;12.60;99.90;;;;;;5028780;28;20501;-37
2022/06/20 05:17:29;;;;;;;7.18;1.88;;;12.80;99.90;;;;;;5028754;28;20501;-37
2022/06/20 05:20:00;;;;;;;4.80;1.17;;;13.00;99.90;;;;;;5029003;28;20432;-37
2022/06/20 05:22:30;;;;;;;8.07;2.25;;;13.30;99.90;;;;;;5029165;28;20137;-37
2022/06/20 05:25:00;;;;;;;11.23;1.60;;;13.50;99.90;;;;;;5029144;28;20103;-37
2022/06/20 05:27:30;;;;;;;6.15;1.60;;;13.90;99.90;;;;;;5028916;28;20045;-37
2022/06/20 05:30:03;;;;;;;6.57;1.13;;;13.90;99.90;;;;;;5029228;28;20191;-37
2022/06/20 05:32:45;;;;;;;9.82;2.35;;;14.10;99.90;;;;;;5028853;28;20063;-37
2022/06/20 05:35:16;;;;;;;;;;;14.60;99.90;;;;;;5028881;28;20060;-37
2022/06/20 05:37:51;;;;;;;6.57;1.50;;;14.90;99.90;;;;;;5028293;28;19929;-37
2022/06/20 05:40:31;;;;;;;6.10;1.52;;;15.10;99.90;;;;;;5028621;28;20037;-37
2022/06/20 05:42:57;;;;;;;9.57;1.60;;;15.40;99.90;;;;;;5028840;28;20387;-37
2022/06/20 05:45:27;;;;;;;5.95;1.23;;;15.50;99.90;;;;;;5028608;28;20053;-37
2022/06/20 05:47:56;;;;;;;6.90;1.17;;;15.90;99.90;;;;;;5028671;28;20053;-37
2022/06/20 05:50:47;;;;;;;4.00;1.25;;;16.10;99.90;;;;;;5028498;28;20067;-37
2022/06/20 05:53:24;;;;;;;8.37;1.40;;;16.40;99.90;;;;;;5028421;28;20057;-38
2022/06/20 05:55:52;;;;;;;8.02;1.52;;;16.80;99.90;;;;;;5028753;28;20439;-38
2022/06/20 05:58:26;;;;;;;5.90;1.30;;;18.60;99.90;;;;;;5028283;28;20049;-37
2022/06/20 06:00:54;;;;;;;8.73;1.95;;;20.50;97.50;;;;;;5028414;28;20053;-38
2022/06/20 06:03:50;;;;;;;6.55;1.00;;;21.70;93.30;;;;;;5028089;28;20043;-38
2022/06/20 06:06:24;;;;;;;7.18;1.40;;;22.80;90.00;;;;;;5028148;28;20041;-37
2022/06/20 06:09:03;;;;;;;7.07;1.23;;;23.40;84.60;;;;;;5027636;28;20507;-38
2022/06/20 06:12:01;;;;;;;3.60;1.08;;;22.20;85.70;;;;;;5027160;28;20081;-37
2022/06/20 06:14:38;;;;;;;7.57;1.88;;;21.50;88.50;;;;;;5027453;28;20057;-38
2022/06/20 06:17:35;;;;;;;4.70;1.08;;;21.60;90.60;;;;;;5027800;28;20128;-38
2022/06/20 06:20:09;;;;;;;6.43;1.58;;;23.00;86.60;;;;;;5027815;28;20037;-38
2022/06/20 06:22:38;;;;;;;6.45;1.45;;;24.90;81.90;;;;;;5027539;28;20061;-38
2022/06/20 06:25:32;;;;;;;4.15;0.90;;;26.30;75.00;;;;;;5026675;28;20100;-38
2022/06/20 06:28:13;;;;;;;5.15;1.20;;;26.20;69.60;;;;;;5027490;28;20053;-38
2022/06/20 06:30:56;;;;;;;4.70;1.02;;;25.10;72.20;;;;;;5027382;28;20590;-38
2022/06/20 06:33:32;;;;;;;6.05;1.38;;;25.40;74.20;;;;;;5027417;28;20515;-38
2022/06/20 06:36:00;;;;;;;5.70;0.98;;;27.90;68.90;;;;;;5027773;28;20049;-38
2022/06/20 06:38:37;;;;;;;5.15;1.33;;;29.10;66.80;;;;;;5027475;28;20038;-38
2022/06/20 06:41:11;;;;;;;4.88;1.35;;;29.50;63.10;;;;;;5026955;28;20080;-38
2022/06/20 06:43:44;;;;;;;5.65;0.98;;;30.70;60.90;;;;;;5027454;28;20042;-38
2022/06/20 06:46:41;;;;;;;5.03;1.13;;;31.20;57.80;;;;;;5029160;28;20103;-38
2022/06/20 06:49:31;;;;;;;3.95;0.93;;;31.20;56.20;;;;;;5029330;28;20045;-38
2022/06/20 06:52:07;;;;;;;5.38;1.13;;;30.10;56.20;;;;;;5029800;28;20041;-38
2022/06/20 06:54:46;;;;;;;5.60;1.00;;;30.70;55.70;;;;;;5027854;28;20107;-38
2022/06/20 06:57:27;;;;;;;3.67;0.65;;;30.70;54.90;;;;;;5029363;28;20163;-38
2022/06/20 06:59:56;;;;;;;6.37;0.80;;;31.80;53.80;;;;;;5029444;28;20054;-38
2022/06/20 07:02:25;;;;;;;4.18;0.70;;;32.90;52.20;;;;;;5029739;28;20167;-38
2022/06/20 07:05:00;;;;;;;5.68;0.82;;;32.40;51.50;;;;;;5029316;28;20196;-39
2022/06/20 07:07:39;;;;;;;3.22;0.70;;;31.30;50.60;;;;;;5030004;28;20037;-39
2022/06/20 07:10:07;;;;;;;5.57;0.95;;;30.00;51.10;;;;;;5029045;28;20073;-38
2022/06/20 07:12:44;;;;;;;5.43;0.70;;;29.30;52.40;;;;;;5029218;28;20045;-38
2022/06/20 07:15:15;;;;;;;3.13;0.50;;;31.00;51.80;;;;;;5028034;28;20120;-39
2022/06/20 07:17:49;;;;;;;6.15;0.80;;;31.50;50.60;;;;;;5029249;28;20484;-38
2022/06/20 07:20:15;;;;;;;4.47;0.55;;;31.90;50.00;;;;;;5029485;28;20435;-38
2022/06/20 07:22:43;;;;;;;3.30;0.63;;;30.40;49.80;;;;;;5028847;28;20107;-39
2022/06/20 07:25:17;;;;;;;5.57;0.70;;;29.70;49.80;;;;;;5029124;28;20057;-38
2022/06/20 07:27:48;;;;;;;3.42;0.63;;;28.00;50.70;;;;;;5029201;28;20046;-38
2022/06/20 07:30:18;;;;;;;3.85;0.90;;;28.60;50.80;;;;;;5029279;28;20037;-38
2022/06/20 07:32:55;;;;;;;6.80;0.90;;;30.30;50.90;;;;;;5029058;28;20057;-38
2022/06/20 07:35:32;;;;;;;3.30;0.88;;;31.00;50.20;;;;;;5028967;28;20511;-39
2022/06/20 07:38:10;;;;;;;3.40;0.70;;;32.70;48.00;;;;;;5029056;28;20042;-39
2022/06/20 07:40:47;;;;;;;2.72;0.63;;;32.00;47.30;;;;;;5028599;28;20037;-38
2022/06/20 07:43:27;;;;;;;3.78;0.95;;;31.20;47.50;;;;;;5029121;28;20038;-39
2022/06/20 07:45:57;;;;;;;2.67;0.60;;;32.20;47.50;;;;;;5028872;28;20390;-39
2022/06/20 07:48:39;;;;;;;3.53;0.77;;;32.00;47.50;;;;;;5029500;28;20120;-38
2022/06/20 07:51:17;;;;;;;4.65;0.80;;;30.60;47.30;;;;;;5029660;28;20041;-38
2022/06/20 07:53:51;;;;;;;4.15;0.80;;;30.70;48.60;;;;;;5029252;28;20447;-38
2022/06/20 07:56:23;;;;;;;7.45;1.17;;;30.50;48.70;;;;;;5029061;28;20049;-38
2022/06/20 07:58:54;;;;;;;7.78;1.08;;;30.10;49.30;;;;;;5031285;28;20044;-39
2022/06/20 08:01:31;;;;;;;;;;;29.20;49.00;;;;;;5033696;28;20690;-38
2022/06/20 08:04:01;;;;;;;3.38;0.85;;;27.70;50.10;;;;;;5032759;28;19932;-39
2022/06/20 08:06:34;;;;;;;4.35;0.65;;;26.80;51.70;;;;;;5033222;28;20056;-38
2022/06/20 08:09:12;;;;;;;5.07;0.52;;;26.10;52.20;;;;;;5032425;28;20080;-38
2022/06/20 08:11:58;;;;;;;3.72;0.70;;;25.40;52.90;;;;;;5032220;28;20053;-38
2022/06/20 08:14:44;;;;;;;4.10;0.98;;;27.10;53.70;;;;;;5032830;28;20120;-38
2022/06/20 08:17:12;;;;;;;3.75;0.68;;;29.40;53.00;;;;;;5032229;28;20532;-39
2022/06/20 08:19:40;;;;;;;6.00;0.90;;;31.60;51.10;;;;;;5031991;28;20117;-38
2022/06/20 08:22:37;;;;;;;4.65;0.70;;;33.60;49.10;;;;;;5031990;28;20108;-39
2022/06/20 08:25:07;;;;;;;3.85;0.70;;;33.30;46.50;;;;;;5031876;28;20401;-38
2022/06/20 08:27:48;;;;;;;4.22;0.80;;;31.90;46.10;;;;;;5032777;28;20522;-38
2022/06/20 08:30:35;;;;;;;7.68;0.68;;;30.20;46.50;;;;;;5024628;28;20057;-38
2022/06/20 08:33:25;;;;;;;3.83;0.40;;;30.00;48.00;;;;;;5026565;28;20053;-38
2022/06/20 08:35:54;;;;;;;3.00;0.63;;;31.40;48.50;;;;;;5030232;28;20041;-39
2022/06/20 08:38:36;;;;;;;3.13;0.57;;;33.00;47.20;;;;;;5029538;28;20041;-45
2022/06/20 08:41:18;;;;;;;6.53;0.40;;;34.60;45.70;;;;;;5012034;28;20045;-40
2022/06/20 08:44:21;;;;;;;3.85;0.82;;;35.10;43.10;;;;;;5028882;28;20497;-41
2022/06/20 08:46:57;;;;;;;4.78;0.38;;;34.50;43.10;;;;;;5029405;28;20064;-41
2022/06/20 08:49:35;;;;;;;3.08;0.45;;;35.40;43.30;;;;;;5029504;28;20044;-42
2022/06/20 08:52:38;;;;;;;1.88;0.22;;;36.70;42.20;;;;;;5028999;28;20049;-42
2022/06/20 08:55:34;;;;;;;4.68;0.68;;;37.90;42.60;;;;;;5029740;28;20056;-44
2022/06/20 08:58:40;;;;;;;3.03;0.40;;;38.90;39.70;;;;;;5029058;28;20481;-40
2022/06/20 09:01:08;;;;;;;3.35;0.35;;;39.10;39.70;;;;;;5028964;28;20080;-40
2022/06/20 09:03:55;;;;;;;2.35;0.30;;;39.40;38.60;;;;;;5029053;28;20044;-42
2022/06/20 09:06:59;;;;;;;2.78;0.30;;;39.10;38.30;;;;;;5029480;28;20124;-41
2022/06/20 09:09:46;;;;;;;2.30;0.45;;;39.70;38.30;;;;;;5025535;28;20081;-42
2022/06/20 09:12:42;;;;;;;1.48;0.20;;;39.60;36.70;;;;;;5029283;28;20041;-41
2022/06/20 09:15:28;;;;;;;2.60;0.30;;;39.70;38.10;;;;;;5029223;28;20049;-43
2022/06/20 09:18:15;;;;;;;2.97;0.22;;;39.00;36.90;;;;;;5029065;28;20037;-40
2022/06/20 09:20:58;;;;;;;3.70;0.40;;;38.40;37.60;;;;;;5029246;28;20080;-40
2022/06/20 09:23:57;;;;;;;2.95;0.20;;;36.90;37.40;;;;;;5028978;28;20060;-40
2022/06/20 09:26:53;;;;;;;6.32;0.30;;;35.20;38.00;;;;;;5028670;28;20389;-40
2022/06/20 09:29:40;;;;;;;6.72;0.30;;;34.80;40.50;;;;;;5028321;28;20080;-41
2022/06/20 09:32:20;;;;;;;2.97;0.47;;;34.40;39.80;;;;;;5029441;28;20049;-39
2022/06/20 09:35:09;;;;;;;3.67;0.40;;;33.10;40.60;;;;;;5028543;28;20099;-40
2022/06/20 09:37:44;;;;;;;1.80;0.30;;;31.90;41.40;;;;;;5028296;28;20053;-40
2022/06/20 09:40:21;;;;;;;2.78;0.40;;;32.00;43.70;;;;;;5029051;28;20049;-41
2022/06/20 09:43:09;;;;;;;6.15;0.50;;;32.50;42.70;;;;;;5028546;28;20037;-38
2022/06/20 09:45:45;;;;;;;1.55;0.40;;;32.90;42.40;;;;;;5029042;28;20172;-39
2022/06/20 09:48:18;;;;;;;2.33;0.40;;;32.80;41.60;;;;;;5028650;28;20427;-39
2022/06/20 09:51:19;;;;;;;2.42;0.40;;;32.80;42.50;;;;;;5028402;28;20084;-39
2022/06/20 09:53:50;;;;;;;;;;;32.70;42.90;;;;;;5028701;28;20552;-38
2022/06/20 09:56:34;;;;;;;3.67;0.60;;;31.80;43.20;;;;;;5028632;28;19920;-38
2022/06/20 09:59:20;;;;;;;2.05;0.40;;;30.90;42.70;;;;;;5028048;28;20091;-39
2022/06/20 10:01:48;;;;;;;2.97;0.40;;;29.90;43.20;;;;;;5027979;28;20061;-38
2022/06/20 10:04:44;;;;;;;4.15;0.50;;;29.00;44.90;;;;;;5028176;28;20041;-39
2022/06/20 10:07:15;;;;;;;3.75;0.50;;;29.20;46.50;;;;;;5025620;28;20045;-40
2022/06/20 10:09:47;;;;;;;5.68;0.40;;;29.20;46.10;;;;;;5025994;28;20072;-38
2022/06/20 10:12:32;;;;;;;3.97;0.43;;;28.90;46.10;;;;;;5025722;28;20504;-39
2022/06/20 10:15:09;;;;;;;4.65;0.80;;;28.30;46.90;;;;;;5026002;28;20088;-39
2022/06/20 10:17:54;;;;;;;2.90;0.20;;;28.00;47.50;;;;;;5025458;28;20053;-39
2022/06/20 10:20:34;;;;;;;3.13;0.65;;;28.20;47.40;;;;;;5025833;28;20037;-40
2022/06/20 10:23:32;;;;;;;3.78;0.60;;;28.50;46.60;;;;;;5024604;28;20474;-42
2022/06/20 10:26:14;;;;;;;5.78;0.40;;;28.60;47.20;;;;;;5025237;28;20037;-39
2022/06/20 10:28:45;;;;;;;3.80;0.40;;;28.50;46.90;;;;;;5025726;28;20045;-39
2022/06/20 10:31:29;;;;;;;;;;;28.30;47.10;;;;;;5026307;28;20359;-40
2022/06/20 10:34:12;;;;;;;2.70;0.22;;;28.40;47.80;;;;;;5025304;28;19928;-39
2022/06/20 10:36:51;;;;;;;3.95;0.35;;;28.70;47.30;;;;;;5025546;28;20053;-38
2022/06/20 10:39:49;;;;;;;4.57;0.30;;;29.10;47.30;;;;;;5024664;28;20041;-38
2022/06/20 10:42:30;;;;;;;5.68;1.00;;;29.30;46.70;;;;;;5025524;28;20042;-38
2022/06/20 10:45:14;;;;;;;6.10;0.43;;;28.90;46.90;;;;;;5024192;28;20285;-38
2022/06/20 10:47:51;;;;;;;3.80;0.43;;;28.50;46.80;;;;;;5025191;28;20041;-38
2022/06/20 10:50:44;;;;;;;4.82;0.43;;;27.90;46.70;;;;;;5025199;28;20049;-37
2022/06/20 10:53:38;;;;;;;1.85;0.20;;;27.40;48.00;;;;;;5023297;28;20049;-38
2022/06/20 10:56:19;;;;;;;4.18;0.40;;;27.40;49.30;;;;;;5024804;28;20046;-37
2022/06/20 10:58:51;;;;;;;4.35;0.45;;;27.10;49.70;;;;;;5025215;28;20408;-37
2022/06/20 11:01:21;;;;;;;;;;;26.70;49.60;;;;;;5025803;28;20102;-37
2022/06/20 11:04:07;;;;;;;4.65;0.40;;;25.50;48.50;;;;;;5024939;28;20000;-38
2022/06/20 11:06:41;;;;;;;4.72;0.30;;;26.10;50.40;;;;;;5025056;28;20500;-37
2022/06/20 11:09:21;;;;;;;3.95;0.50;;;25.90;51.20;;;;;;5023320;28;20132;-37
2022/06/20 11:12:10;;;;;;;4.78;0.73;;;25.60;52.80;;;;;;5024934;28;20455;-37
2022/06/20 11:14:42;;;;;;;2.55;0.28;;;25.10;52.20;;;;;;5024756;28;20326;-37
2022/06/20 11:17:07;;;;;;;2.88;0.40;;;24.80;51.90;;;;;;5024905;28;20397;-37
2022/06/20 11:20:22;;;;;;;5.65;0.45;;;24.70;52.90;;;;;;5025093;28;20045;-37
2022/06/20 11:23:01;;;;;;;2.88;0.40;;;24.80;53.50;;;;;;5013389;28;20060;-37
2022/06/20 11:25:44;;;;;;;3.10;0.20;;;24.80;53.30;;;;;;5024387;28;20052;-37
2022/06/20 11:28:29;;;;;;;3.33;0.30;;;24.60;52.90;;;;;;5024695;28;20064;-39
2022/06/20 11:31:25;;;;;;;9.15;0.43;;;24.30;53.20;;;;;;5024298;28;20057;-42
2022/06/20 11:34:27;;;;;;;3.97;0.60;;;24.10;55.10;;;;;;5027266;28;20482;-41
2022/06/20 11:37:07;;;;;;;3.10;0.60;;;23.90;55.00;;;;;;5027714;28;20049;-40
2022/06/20 11:39:48;;;;;;;4.32;0.40;;;23.60;55.70;;;;;;5027876;28;20038;-40
2022/06/20 11:42:50;;;;;;;16.08;0.70;;;23.30;57.00;;;;;;5011426;28;20583;-43
2022/06/20 11:45:25;;;;;;;5.40;0.32;;;23.10;57.30;;;;;;5025786;28;20037;-39
2022/06/20 11:48:13;;;;;;;4.18;0.35;;;22.90;56.40;;;;;;5025698;28;20045;-40
2022/06/20 11:50:43;;;;;;;1.92;0.35;;;23.00;57.00;;;;;;5025771;28;20049;-39
2022/06/20 11:53:21;;;;;;;4.88;0.70;;;23.00;56.50;;;;;;5025592;28;20131;-39
2022/06/20 11:55:49;;;;;;;5.97;0.30;;;23.10;56.90;;;;;;5025688;28;20041;-40
2022/06/20 11:58:54;;;;;;;5.10;0.50;;;23.00;57.20;;;;;;5025500;28;20128;-38
2022/06/20 12:01:28;;;;;;;5.53;0.40;;;23.00;56.10;;;;;;5025544;28;20199;-39
2022/06/20 12:04:14;;;;;;;3.00;0.40;;;23.10;56.30;;;;;;5025626;28;20413;-39
2022/06/20 12:07:11;;;;;;;14.15;1.13;;;23.40;55.50;;;;;;5025103;28;20495;-40
2022/06/20 12:09:42;;;;;;;7.53;0.50;;;23.90;55.80;;;;;;5025619;28;20069;-40
2022/06/20 12:12:12;;;;;;;;;;;24.40;55.80;;;;;;5028844;28;20117;-39
2022/06/20 12:15:21;;;;;;;4.22;0.47;;;24.60;55.90;;;;;;5030033;28;20023;-39
2022/06/20 12:18:06;;;;;;;4.68;0.50;;;24.60;55.20;;;;;;5030925;28;20049;-39
2022/06/20 12:23:33;;;;;;;4.88;0.40;;;24.50;55.40;;;;;;5029902;28;20584;-39
2022/06/20 12:26:04;;;;;;;3.92;0.50;;;24.20;55.20;;;;;;5029598;28;20037;-39
2022/06/20 12:28:39;;;;;;;2.70;0.30;;;24.00;55.70;;;;;;5029208;28;20042;-38
2022/06/20 12:31:08;;;;;;;3.97;0.40;;;23.80;54.80;;;;;;5029389;28;20040;-39
2022/06/20 12:33:41;;;;;;;9.20;0.70;;;23.50;55.40;;;;;;5029576;28;20353;-39
2022/06/20 12:36:17;;;;;;;2.58;0.50;;;23.30;56.30;;;;;;5029231;28;20761;-39
2022/06/20 12:39:05;;;;;;;9.77;0.73;;;23.20;57.00;;;;;;5030474;28;20069;-40
2022/06/20 12:41:37;;;;;;;5.32;0.70;;;23.10;56.60;;;;;;5029690;28;20393;-42
2022/06/20 12:44:23;;;;;;;7.20;0.60;;;23.10;56.20;;;;;;5029053;28;20033;-41
2022/06/20 12:47:13;;;;;;;4.72;0.50;;;23.30;57.80;;;;;;5030194;28;20045;-40
2022/06/20 12:49:54;;;;;;;2.97;0.40;;;23.30;58.00;;;;;;5028269;28;20049;-40
2022/06/20 12:52:48;;;;;;;8.47;0.97;;;23.40;58.50;;;;;;5027805;28;20060;-47
2022/06/20 12:55:39;;;;;;;3.85;0.90;;;23.30;59.70;;;;;;5028036;28;20057;-40
2022/06/20 12:58:17;;;;;;;11.82;0.98;;;23.10;59.10;;;;;;5027975;28;20045;-41
2022/06/20 13:00:57;;;;;;;5.65;1.02;;;23.60;59.90;;;;;;5028003;28;20045;-39
2022/06/20 13:03:57;;;;;;;4.28;0.57;;;22.80;59.70;;;;;;5027863;28;20041;-40
2022/06/20 13:07:04;;;;;;;4.30;0.80;;;23.00;60.40;;;;;;5027335;28;20132;-41
2022/06/20 13:10:04;;;;;;;4.47;0.70;;;23.30;60.70;;;;;;5026358;28;20049;-42
2022/06/20 13:13:03;;;;;;;7.97;0.50;;;23.50;55.30;;;;;;5028106;28;20520;-39
2022/06/20 13:15:55;;;;;;;10.77;0.82;;;23.40;57.80;;;;;;5028118;28;20043;-40
2022/06/20 13:18:39;;;;;;;8.57;0.40;;;23.30;58.00;;;;;;5028375;28;20088;-39
2022/06/20 13:21:16;;;;;;;3.95;0.40;;;23.20;57.90;;;;;;5028196;28;20037;-41
2022/06/20 13:23:47;;;;;;;3.65;0.52;;;23.10;57.00;;;;;;5027879;28;20061;-45
2022/06/20 13:26:45;;;;;;;7.05;0.75;;;23.10;56.90;;;;;;5028033;28;20049;-41
2022/06/20 13:29:49;;;;;;;11.60;0.82;;;22.90;56.30;;;;;;5027753;28;20076;-40
2022/06/20 13:32:24;;;;;;;9.50;1.58;;;22.50;56.10;;;;;;5025680;28;20052;-41
2022/06/20 13:35:20;;;;;;;2.53;0.50;;;22.20;57.20;;;;;;5026152;28;20049;-43
2022/06/20 13:38:12;;;;;;;3.40;0.45;;;21.90;58.20;;;;;;5026678;28;20037;-41
2022/06/20 13:40:43;;;;;;;4.33;0.40;;;21.70;58.90;;;;;;5027252;28;20076;-43
2022/06/20 13:43:26;;;;;;;5.35;0.50;;;21.50;58.80;;;;;;5026126;28;20550;-39
2022/06/20 13:46:10;;;;;;;3.17;0.40;;;21.20;59.50;;;;;;5027203;28;20092;-38
2022/06/20 13:48:45;;;;;;;3.95;0.50;;;20.90;60.50;;;;;;5026962;28;20192;-38
2022/06/20 13:51:29;;;;;;;3.65;0.50;;;20.70;61.10;;;;;;5025815;28;20077;-38
2022/06/20 13:54:04;;;;;;;5.10;0.88;;;20.50;61.50;;;;;;5026924;28;20045;-37
2022/06/20 13:56:40;;;;;;;3.75;0.75;;;20.30;62.10;;;;;;5026895;28;20085;-37
2022/06/20 13:59:24;;;;;;;3.88;0.55;;;20.20;63.50;;;;;;5026834;28;20045;-36